Terminal Aerodrome Forecast
Issued by NWS Mobile, AL

Home | Current Version | Previous Version | Text Only | Print | Product List | Glossary On
Versions: 1 2 3 4 5 6 7 8 9 10 11 12 13 14 15
000
FTUS44 KMOB 031726
TAFMOB
TAF
KMOB 031726Z 0318/0418 08011G22KT P6SM VCSH SCT070 OVC090
     FM040000 07011KT P6SM OVC050
      TEMPO 0406/0410 6SM -RA BR OVC050
     FM041000 11010KT P6SM OVC007 PROB30 0412/0416 5SM -TSRA
      BKN007CB=

USA.gov is the U.S. government's official web portal to all federal, state and local government web resources and services.